sensor_id;sensor_type;location;lat;lon;timestamp;temperature;humidity
32446;DHT22;18899;50.748;7.102;2023-05-02T00:00:12;12.10;99.90
32446;DHT22;18899;50.748;7.102;2023-05-02T00:02:38;12.10;99.90
32446;DHT22;18899;50.748;7.102;2023-05-02T00:05:04;12.10;99.90
32446;DHT22;18899;50.748;7.102;2023-05-02T00:07:31;12.30;99.90
32446;DHT22;18899;50.748;7.102;2023-05-02T00:09:57;12.30;99.90
32446;DHT22;18899;50.748;7.102;2023-05-02T00:12:22;12.20;99.90
32446;DHT22;18899;50.748;7.102;2023-05-02T00:14:48;12.20;99.90
32446;DHT22;18899;50.748;7.102;2023-05-02T00:17:17;12.20;99.90
32446;DHT22;18899;50.748;7.102;2023-05-02T00:19:43;12.20;99.90
32446;DHT22;18899;50.748;7.102;2023-05-02T00:22:08;12.20;99.90
32446;DHT22;18899;50.748;7.102;2023-05-02T00:24:34;12.10;99.90
32446;DHT22;18899;50.748;7.102;2023-05-02T00:26:59;12.30;99.90
32446;DHT22;18899;50.748;7.102;2023-05-02T00:29:25;12.20;99.90
32446;DHT22;18899;50.748;7.102;2023-05-02T00:31:51;12.30;99.90
32446;DHT22;18899;50.748;7.102;2023-05-02T00:34:16;12.40;99.90
32446;DHT22;18899;50.748;7.102;2023-05-02T00:36:42;12.50;99.90
32446;DHT22;18899;50.748;7.102;2023-05-02T00:39:07;12.40;99.90
32446;DHT22;18899;50.748;7.102;2023-05-02T00:41:33;12.30;99.90
32446;DHT22;18899;50.748;7.102;2023-05-02T00:43:58;12.30;99.90
32446;DHT22;18899;50.748;7.102;2023-05-02T00:46:24;12.50;99.90
32446;DHT22;18899;50.748;7.102;2023-05-02T00:48:50;12.50;99.90
32446;DHT22;18899;50.748;7.102;2023-05-02T00:51:15;12.40;99.90
32446;DHT22;18899;50.748;7.102;2023-05-02T00:53:41;12.20;99.90
32446;DHT22;18899;50.748;7.102;2023-05-02T00:56:07;12.20;99.90
32446;DHT22;18899;50.748;7.102;2023-05-02T00:58:34;12.20;99.90
32446;DHT22;18899;50.748;7.102;2023-05-02T01:06:34;12.10;99.90
32446;DHT22;18899;50.748;7.102;2023-05-02T01:12:01;12.10;99.90
32446;DHT22;18899;50.748;7.102;2023-05-02T01:14:30;12.20;99.90
32446;DHT22;18899;50.748;7.102;2023-05-02T01:16:58;12.20;99.90
32446;DHT22;18899;50.748;7.102;2023-05-02T01:19:34;12.30;99.90
32446;DHT22;18899;50.748;7.102;2023-05-02T01:22:03;12.30;99.90
32446;DHT22;18899;50.748;7.102;2023-05-02T01:28:20;12.20;99.90
32446;DHT22;18899;50.748;7.102;2023-05-02T01:30:54;12.20;99.90
32446;DHT22;18899;50.748;7.102;2023-05-02T01:33:22;12.20;99.90
32446;DHT22;18899;50.748;7.102;2023-05-02T01:35:50;12.00;99.90
32446;DHT22;18899;50.748;7.102;2023-05-02T01:38:18;12.00;99.90
32446;DHT22;18899;50.748;7.102;2023-05-02T01:40:44;12.00;99.90
32446;DHT22;18899;50.748;7.102;2023-05-02T01:43:12;12.00;99.90
32446;DHT22;18899;50.748;7.102;2023-05-02T01:45:40;12.00;99.90
32446;DHT22;18899;50.748;7.102;2023-05-02T01:48:08;12.10;99.90
32446;DHT22;18899;50.748;7.102;2023-05-02T01:50:35;12.20;99.90
32446;DHT22;18899;50.748;7.102;2023-05-02T01:53:02;12.30;99.90
32446;DHT22;18899;50.748;7.102;2023-05-02T01:55:30;12.20;99.90
32446;DHT22;18899;50.748;7.102;2023-05-02T01:57:56;12.10;99.90
32446;DHT22;18899;50.748;7.102;2023-05-02T02:00:23;12.10;99.90
32446;DHT22;18899;50.748;7.102;2023-05-02T02:02:50;12.00;99.90
32446;DHT22;18899;50.748;7.102;2023-05-02T02:05:19;12.00;99.90
32446;DHT22;18899;50.748;7.102;2023-05-02T02:07:46;11.90;99.90
32446;DHT22;18899;50.748;7.102;2023-05-02T02:10:12;12.00;99.90
32446;DHT22;18899;50.748;7.102;2023-05-02T02:13:01;12.00;99.90
32446;DHT22;18899;50.748;7.102;2023-05-02T02:15:30;12.00;99.90
32446;DHT22;18899;50.748;7.102;2023-05-02T02:18:06;11.90;99.90
32446;DHT22;18899;50.748;7.102;2023-05-02T02:20:34;12.00;99.90
32446;DHT22;18899;50.748;7.102;2023-05-02T02:23:03;12.00;99.90
32446;DHT22;18899;50.748;7.102;2023-05-02T02:25:30;11.90;99.90
32446;DHT22;18899;50.748;7.102;2023-05-02T02:27:56;11.90;99.90
32446;DHT22;18899;50.748;7.102;2023-05-02T02:30:22;11.90;99.90
32446;DHT22;18899;50.748;7.102;2023-05-02T02:32:47;11.80;99.90
32446;DHT22;18899;50.748;7.102;2023-05-02T02:35:13;11.90;99.90
32446;DHT22;18899;50.748;7.102;2023-05-02T02:37:51;11.90;99.90
32446;DHT22;18899;50.748;7.102;2023-05-02T02:40:55;11.80;99.90
32446;DHT22;18899;50.748;7.102;2023-05-02T02:46:03;12.10;99.90
32446;DHT22;18899;50.748;7.102;2023-05-02T02:48:42;11.90;99.90
32446;DHT22;18899;50.748;7.102;2023-05-02T02:51:13;11.90;99.90
32446;DHT22;18899;50.748;7.102;2023-05-02T02:53:46;11.90;99.90
32446;DHT22;18899;50.748;7.102;2023-05-02T02:56:19;11.80;99.90
32446;DHT22;18899;50.748;7.102;2023-05-02T02:59:14;11.80;99.90
32446;DHT22;18899;50.748;7.102;2023-05-02T03:01:47;11.70;99.90
32446;DHT22;18899;50.748;7.102;2023-05-02T03:04:18;11.60;99.90
32446;DHT22;18899;50.748;7.102;2023-05-02T03:06:45;11.70;99.90
32446;DHT22;18899;50.748;7.102;2023-05-02T03:09:14;11.60;99.90
32446;DHT22;18899;50.748;7.102;2023-05-02T03:11:43;11.70;99.90
32446;DHT22;18899;50.748;7.102;2023-05-02T03:14:10;11.70;99.90
32446;DHT22;18899;50.748;7.102;2023-05-02T03:16:37;11.60;99.90
32446;DHT22;18899;50.748;7.102;2023-05-02T03:19:04;11.60;99.90
32446;DHT22;18899;50.748;7.102;2023-05-02T03:21:30;11.60;99.90
32446;DHT22;18899;50.748;7.102;2023-05-02T03:24:00;11.60;99.90
32446;DHT22;18899;50.748;7.102;2023-05-02T03:26:26;11.70;99.90
32446;DHT22;18899;50.748;7.102;2023-05-02T03:28:52;11.60;99.90
32446;DHT22;18899;50.748;7.102;2023-05-02T03:31:18;11.50;99.90
32446;DHT22;18899;50.748;7.102;2023-05-02T03:33:44;11.60;99.90
32446;DHT22;18899;50.748;7.102;2023-05-02T03:36:09;11.90;99.90
32446;DHT22;18899;50.748;7.102;2023-05-02T03:38:35;11.90;99.90
32446;DHT22;18899;50.748;7.102;2023-05-02T03:41:01;12.00;99.90
32446;DHT22;18899;50.748;7.102;2023-05-02T03:43:28;11.90;99.90
32446;DHT22;18899;50.748;7.102;2023-05-02T03:45:54;11.90;99.90
32446;DHT22;18899;50.748;7.102;2023-05-02T03:48:19;11.80;99.90
32446;DHT22;18899;50.748;7.102;2023-05-02T03:50:45;11.60;99.90
32446;DHT22;18899;50.748;7.102;2023-05-02T03:53:10;11.50;99.90
32446;DHT22;18899;50.748;7.102;2023-05-02T03:55:39;11.50;99.90
32446;DHT22;18899;50.748;7.102;2023-05-02T03:58:06;11.50;99.90
32446;DHT22;18899;50.748;7.102;2023-05-02T04:00:31;11.40;99.90
32446;DHT22;18899;50.748;7.102;2023-05-02T04:02:57;11.40;99.90
32446;DHT22;18899;50.748;7.102;2023-05-02T04:05:22;11.50;99.90
32446;DHT22;18899;50.748;7.102;2023-05-02T04:07:48;11.50;99.90
32446;DHT22;18899;50.748;7.102;2023-05-02T04:10:13;11.40;99.90
32446;DHT22;18899;50.748;7.102;2023-05-02T04:12:42;11.30;99.90
32446;DHT22;18899;50.748;7.102;2023-05-02T04:15:11;11.40;99.90
32446;DHT22;18899;50.748;7.102;2023-05-02T04:17:37;11.50;99.90
32446;DHT22;18899;50.748;7.102;2023-05-02T04:20:04;11.50;99.90
32446;DHT22;18899;50.748;7.102;2023-05-02T04:22:30;11.40;99.90
32446;DHT22;18899;50.748;7.102;2023-05-02T04:24:56;11.40;99.90
32446;DHT22;18899;50.748;7.102;2023-05-02T04:27:21;11.50;99.90
32446;DHT22;18899;50.748;7.102;2023-05-02T04:29:48;11.70;99.90
32446;DHT22;18899;50.748;7.102;2023-05-02T04:32:13;11.60;99.90
32446;DHT22;18899;50.748;7.102;2023-05-02T04:34:39;11.50;99.90
32446;DHT22;18899;50.748;7.102;2023-05-02T04:37:05;11.50;99.90
32446;DHT22;18899;50.748;7.102;2023-05-02T04:39:32;11.40;99.90
32446;DHT22;18899;50.748;7.102;2023-05-02T04:41:57;11.40;99.90
32446;DHT22;18899;50.748;7.102;2023-05-02T04:44:23;11.40;99.90
32446;DHT22;18899;50.748;7.102;2023-05-02T04:46:49;11.40;99.90
32446;DHT22;18899;50.748;7.102;2023-05-02T04:49:14;11.40;99.90
32446;DHT22;18899;50.748;7.102;2023-05-02T04:51:40;11.50;99.90
32446;DHT22;18899;50.748;7.102;2023-05-02T04:54:06;11.50;99.90
32446;DHT22;18899;50.748;7.102;2023-05-02T04:56:31;11.50;99.90
32446;DHT22;18899;50.748;7.102;2023-05-02T04:58:57;11.50;99.90
32446;DHT22;18899;50.748;7.102;2023-05-02T05:01:23;11.50;99.90
32446;DHT22;18899;50.748;7.102;2023-05-02T05:03:49;11.50;99.90
32446;DHT22;18899;50.748;7.102;2023-05-02T05:06:15;11.50;99.90
32446;DHT22;18899;50.748;7.102;2023-05-02T05:08:40;11.50;99.90
32446;DHT22;18899;50.748;7.102;2023-05-02T05:11:06;11.50;99.90
32446;DHT22;18899;50.748;7.102;2023-05-02T05:13:31;11.50;99.90
32446;DHT22;18899;50.748;7.102;2023-05-02T05:15:57;11.50;99.90
32446;DHT22;18899;50.748;7.102;2023-05-02T05:18:23;11.50;99.90
32446;DHT22;18899;50.748;7.102;2023-05-02T05:20:49;11.50;99.90
32446;DHT22;18899;50.748;7.102;2023-05-02T05:23:14;11.50;99.90
32446;DHT22;18899;50.748;7.102;2023-05-02T05:25:40;11.50;99.90
32446;DHT22;18899;50.748;7.102;2023-05-02T05:28:05;11.50;99.90
32446;DHT22;18899;50.748;7.102;2023-05-02T05:30:31;11.70;99.90
32446;DHT22;18899;50.748;7.102;2023-05-02T05:32:57;11.70;99.90
32446;DHT22;18899;50.748;7.102;2023-05-02T05:35:24;11.70;99.90
32446;DHT22;18899;50.748;7.102;2023-05-02T05:37:49;11.70;99.90
32446;DHT22;18899;50.748;7.102;2023-05-02T05:40:15;11.70;99.90
32446;DHT22;18899;50.748;7.102;2023-05-02T05:42:41;11.70;99.90
32446;DHT22;18899;50.748;7.102;2023-05-02T05:45:07;11.70;99.90
32446;DHT22;18899;50.748;7.102;2023-05-02T05:47:33;11.80;99.90
32446;DHT22;18899;50.748;7.102;2023-05-02T05:49:59;11.90;99.90
32446;DHT22;18899;50.748;7.102;2023-05-02T05:52:25;12.00;99.90
32446;DHT22;18899;50.748;7.102;2023-05-02T05:54:54;12.00;99.90
32446;DHT22;18899;50.748;7.102;2023-05-02T05:57:21;12.00;99.90
32446;DHT22;18899;50.748;7.102;2023-05-02T05:59:47;12.00;99.90
32446;DHT22;18899;50.748;7.102;2023-05-02T06:02:13;11.90;99.90
32446;DHT22;18899;50.748;7.102;2023-05-02T06:04:39;11.80;99.90
32446;DHT22;18899;50.748;7.102;2023-05-02T06:07:05;11.80;99.90
32446;DHT22;18899;50.748;7.102;2023-05-02T06:09:30;11.80;99.90
32446;DHT22;18899;50.748;7.102;2023-05-02T06:11:56;11.80;99.90
32446;DHT22;18899;50.748;7.102;2023-05-02T06:14:22;11.80;99.90
32446;DHT22;18899;50.748;7.102;2023-05-02T06:16:47;11.80;99.90
32446;DHT22;18899;50.748;7.102;2023-05-02T06:19:13;11.80;99.90
32446;DHT22;18899;50.748;7.102;2023-05-02T06:21:39;11.90;99.90
32446;DHT22;18899;50.748;7.102;2023-05-02T06:24:05;12.00;99.90
32446;DHT22;18899;50.748;7.102;2023-05-02T06:26:31;11.90;99.90
32446;DHT22;18899;50.748;7.102;2023-05-02T06:28:56;12.10;99.90
32446;DHT22;18899;50.748;7.102;2023-05-02T06:31:22;12.10;99.90
32446;DHT22;18899;50.748;7.102;2023-05-02T06:33:47;12.10;99.90
32446;DHT22;18899;50.748;7.102;2023-05-02T06:36:13;12.20;99.90
32446;DHT22;18899;50.748;7.102;2023-05-02T06:38:38;12.10;99.90
32446;DHT22;18899;50.748;7.102;2023-05-02T06:41:04;12.10;99.90
32446;DHT22;18899;50.748;7.102;2023-05-02T06:43:29;12.10;99.90
32446;DHT22;18899;50.748;7.102;2023-05-02T06:45:55;12.10;99.90
32446;DHT22;18899;50.748;7.102;2023-05-02T06:48:21;12.10;99.90
32446;DHT22;18899;50.748;7.102;2023-05-02T06:50:48;12.10;99.90
32446;DHT22;18899;50.748;7.102;2023-05-02T06:53:14;12.10;99.90
32446;DHT22;18899;50.748;7.102;2023-05-02T06:55:39;12.30;99.90
32446;DHT22;18899;50.748;7.102;2023-05-02T06:58:05;12.40;99.90
32446;DHT22;18899;50.748;7.102;2023-05-02T07:00:31;12.40;99.90
32446;DHT22;18899;50.748;7.102;2023-05-02T07:02:56;12.40;99.90
32446;DHT22;18899;50.748;7.102;2023-05-02T07:05:22;12.50;99.90
32446;DHT22;18899;50.748;7.102;2023-05-02T07:07:48;12.60;99.90
32446;DHT22;18899;50.748;7.102;2023-05-02T07:10:13;12.60;99.90
32446;DHT22;18899;50.748;7.102;2023-05-02T07:12:39;12.60;99.90
32446;DHT22;18899;50.748;7.102;2023-05-02T07:15:05;12.60;99.90
32446;DHT22;18899;50.748;7.102;2023-05-02T07:17:31;12.60;99.90
32446;DHT22;18899;50.748;7.102;2023-05-02T07:19:57;12.40;99.90
32446;DHT22;18899;50.748;7.102;2023-05-02T07:22:22;12.30;99.90
32446;DHT22;18899;50.748;7.102;2023-05-02T07:24:55;12.20;99.90
32446;DHT22;18899;50.748;7.102;2023-05-02T07:27:21;12.00;99.90
32446;DHT22;18899;50.748;7.102;2023-05-02T07:29:46;11.90;99.90
32446;DHT22;18899;50.748;7.102;2023-05-02T07:32:12;11.90;99.90
32446;DHT22;18899;50.748;7.102;2023-05-02T07:34:37;11.90;99.90
32446;DHT22;18899;50.748;7.102;2023-05-02T07:37:03;11.80;99.90
32446;DHT22;18899;50.748;7.102;2023-05-02T07:39:28;11.80;99.90
32446;DHT22;18899;50.748;7.102;2023-05-02T07:41:54;11.90;99.90
32446;DHT22;18899;50.748;7.102;2023-05-02T07:44:20;11.90;99.90
32446;DHT22;18899;50.748;7.102;2023-05-02T07:46:46;12.10;99.90
32446;DHT22;18899;50.748;7.102;2023-05-02T07:49:14;12.20;99.90
32446;DHT22;18899;50.748;7.102;2023-05-02T07:51:40;12.30;99.90
32446;DHT22;18899;50.748;7.102;2023-05-02T07:54:20;12.30;99.90
32446;DHT22;18899;50.748;7.102;2023-05-02T07:56:45;12.30;99.90
32446;DHT22;18899;50.748;7.102;2023-05-02T07:59:12;12.40;99.90
32446;DHT22;18899;50.748;7.102;2023-05-02T08:01:38;12.40;99.90
32446;DHT22;18899;50.748;7.102;2023-05-02T08:04:04;12.40;99.90
32446;DHT22;18899;50.748;7.102;2023-05-02T08:06:30;12.30;99.90
32446;DHT22;18899;50.748;7.102;2023-05-02T08:08:57;12.30;99.90
32446;DHT22;18899;50.748;7.102;2023-05-02T08:11:22;12.30;99.90
32446;DHT22;18899;50.748;7.102;2023-05-02T08:13:50;12.40;99.90
32446;DHT22;18899;50.748;7.102;2023-05-02T08:16:16;12.50;99.90
32446;DHT22;18899;50.748;7.102;2023-05-02T08:18:41;12.40;99.90
32446;DHT22;18899;50.748;7.102;2023-05-02T08:21:07;12.60;99.90
32446;DHT22;18899;50.748;7.102;2023-05-02T08:23:33;12.50;99.90
32446;DHT22;18899;50.748;7.102;2023-05-02T08:25:58;12.60;99.90
32446;DHT22;18899;50.748;7.102;2023-05-02T08:28:24;12.80;99.90
32446;DHT22;18899;50.748;7.102;2023-05-02T08:30:49;13.00;99.90
32446;DHT22;18899;50.748;7.102;2023-05-02T08:33:15;13.30;99.90
32446;DHT22;18899;50.748;7.102;2023-05-02T08:35:41;13.70;99.90
32446;DHT22;18899;50.748;7.102;2023-05-02T08:38:06;14.10;99.90
32446;DHT22;18899;50.748;7.102;2023-05-02T08:40:36;14.30;99.90
32446;DHT22;18899;50.748;7.102;2023-05-02T08:43:03;14.20;99.90
32446;DHT22;18899;50.748;7.102;2023-05-02T08:45:39;13.40;99.90
32446;DHT22;18899;50.748;7.102;2023-05-02T08:48:12;13.00;99.90
32446;DHT22;18899;50.748;7.102;2023-05-02T08:50:41;12.60;99.90
32446;DHT22;18899;50.748;7.102;2023-05-02T08:53:09;12.50;99.90
32446;DHT22;18899;50.748;7.102;2023-05-02T08:55:36;12.30;99.90
32446;DHT22;18899;50.748;7.102;2023-05-02T08:58:04;12.10;99.90
32446;DHT22;18899;50.748;7.102;2023-05-02T09:00:31;11.90;99.90
32446;DHT22;18899;50.748;7.102;2023-05-02T09:03:10;12.10;99.90
32446;DHT22;18899;50.748;7.102;2023-05-02T09:05:41;12.10;99.90
32446;DHT22;18899;50.748;7.102;2023-05-02T09:08:07;12.20;99.90
32446;DHT22;18899;50.748;7.102;2023-05-02T09:10:36;12.20;99.90
32446;DHT22;18899;50.748;7.102;2023-05-02T09:13:34;12.20;99.90
32446;DHT22;18899;50.748;7.102;2023-05-02T09:18:35;12.50;99.90
32446;DHT22;18899;50.748;7.102;2023-05-02T09:21:06;12.60;99.90
32446;DHT22;18899;50.748;7.102;2023-05-02T09:23:41;12.80;99.90
32446;DHT22;18899;50.748;7.102;2023-05-02T09:26:11;12.70;99.90
32446;DHT22;18899;50.748;7.102;2023-05-02T09:28:45;12.80;99.90
32446;DHT22;18899;50.748;7.102;2023-05-02T09:31:19;12.90;99.90
32446;DHT22;18899;50.748;7.102;2023-05-02T09:33:46;13.40;99.90
32446;DHT22;18899;50.748;7.102;2023-05-02T09:36:13;13.70;99.90
32446;DHT22;18899;50.748;7.102;2023-05-02T09:38:43;13.90;99.90
32446;DHT22;18899;50.748;7.102;2023-05-02T09:41:10;13.80;99.90
32446;DHT22;18899;50.748;7.102;2023-05-02T09:43:36;13.70;99.90
32446;DHT22;18899;50.748;7.102;2023-05-02T09:46:11;13.50;99.90
32446;DHT22;18899;50.748;7.102;2023-05-02T09:48:56;13.40;99.90
32446;DHT22;18899;50.748;7.102;2023-05-02T09:51:24;13.30;99.90
32446;DHT22;18899;50.748;7.102;2023-05-02T09:53:50;13.00;99.90
32446;DHT22;18899;50.748;7.102;2023-05-02T09:56:16;13.20;99.90
32446;DHT22;18899;50.748;7.102;2023-05-02T09:58:42;13.00;99.90
32446;DHT22;18899;50.748;7.102;2023-05-02T10:01:14;13.00;99.90
32446;DHT22;18899;50.748;7.102;2023-05-02T10:03:40;13.20;99.90
32446;DHT22;18899;50.748;7.102;2023-05-02T10:06:07;13.60;99.90
32446;DHT22;18899;50.748;7.102;2023-05-02T10:08:33;13.60;99.90
32446;DHT22;18899;50.748;7.102;2023-05-02T10:11:01;13.40;99.90
32446;DHT22;18899;50.748;7.102;2023-05-02T10:13:29;13.00;99.90
32446;DHT22;18899;50.748;7.102;2023-05-02T10:16:01;12.50;99.90
32446;DHT22;18899;50.748;7.102;2023-05-02T10:18:37;12.20;99.90
32446;DHT22;18899;50.748;7.102;2023-05-02T10:21:16;12.20;99.90
32446;DHT22;18899;50.748;7.102;2023-05-02T10:23:45;12.20;99.90
32446;DHT22;18899;50.748;7.102;2023-05-02T10:26:16;12.30;99.90
32446;DHT22;18899;50.748;7.102;2023-05-02T10:28:42;12.40;99.90
32446;DHT22;18899;50.748;7.102;2023-05-02T10:31:12;12.60;99.90
32446;DHT22;18899;50.748;7.102;2023-05-02T10:33:38;13.00;99.90
32446;DHT22;18899;50.748;7.102;2023-05-02T10:36:06;13.40;99.90
32446;DHT22;18899;50.748;7.102;2023-05-02T10:38:32;13.80;99.90
32446;DHT22;18899;50.748;7.102;2023-05-02T10:41:06;14.10;99.90
32446;DHT22;18899;50.748;7.102;2023-05-02T10:43:33;14.00;99.90
32446;DHT22;18899;50.748;7.102;2023-05-02T10:45:59;13.90;99.90
32446;DHT22;18899;50.748;7.102;2023-05-02T10:48:28;13.70;99.90
32446;DHT22;18899;50.748;7.102;2023-05-02T10:50:58;14.00;99.90
32446;DHT22;18899;50.748;7.102;2023-05-02T10:56:11;14.90;99.90
32446;DHT22;18899;50.748;7.102;2023-05-02T10:58:37;15.30;99.90
32446;DHT22;18899;50.748;7.102;2023-05-02T11:04:10;16.00;99.90
32446;DHT22;18899;50.748;7.102;2023-05-02T11:09:30;15.60;99.90
32446;DHT22;18899;50.748;7.102;2023-05-02T11:11:57;15.10;99.90
32446;DHT22;18899;50.748;7.102;2023-05-02T11:19:22;15.10;99.90
32446;DHT22;18899;50.748;7.102;2023-05-02T11:21:48;14.90;99.90
32446;DHT22;18899;50.748;7.102;2023-05-02T11:24:36;14.80;99.90
32446;DHT22;18899;50.748;7.102;2023-05-02T11:30:06;14.50;99.90
32446;DHT22;18899;50.748;7.102;2023-05-02T11:35:17;14.60;99.90
32446;DHT22;18899;50.748;7.102;2023-05-02T11:37:55;14.70;99.90
32446;DHT22;18899;50.748;7.102;2023-05-02T11:40:22;14.60;99.90
32446;DHT22;18899;50.748;7.102;2023-05-02T11:42:48;14.70;99.90
32446;DHT22;18899;50.748;7.102;2023-05-02T11:45:14;14.50;99.90
32446;DHT22;18899;50.748;7.102;2023-05-02T11:47:40;14.10;99.90
32446;DHT22;18899;50.748;7.102;2023-05-02T11:50:07;14.00;99.90
32446;DHT22;18899;50.748;7.102;2023-05-02T11:52:42;14.10;99.90
32446;DHT22;18899;50.748;7.102;2023-05-02T11:55:11;14.00;99.90
32446;DHT22;18899;50.748;7.102;2023-05-02T11:57:37;14.20;99.90
32446;DHT22;18899;50.748;7.102;2023-05-02T12:00:04;14.00;99.90
32446;DHT22;18899;50.748;7.102;2023-05-02T12:02:40;13.80;99.90
32446;DHT22;18899;50.748;7.102;2023-05-02T12:05:07;13.90;99.90
32446;DHT22;18899;50.748;7.102;2023-05-02T12:07:38;14.00;99.90
32446;DHT22;18899;50.748;7.102;2023-05-02T12:10:08;14.00;99.90
32446;DHT22;18899;50.748;7.102;2023-05-02T12:12:34;14.10;99.90
32446;DHT22;18899;50.748;7.102;2023-05-02T12:15:07;14.50;99.90
32446;DHT22;18899;50.748;7.102;2023-05-02T12:17:36;14.80;99.90
32446;DHT22;18899;50.748;7.102;2023-05-02T12:20:05;14.40;99.90
32446;DHT22;18899;50.748;7.102;2023-05-02T12:22:31;14.40;99.90
32446;DHT22;18899;50.748;7.102;2023-05-02T12:24:57;14.40;99.90
32446;DHT22;18899;50.748;7.102;2023-05-02T12:27:22;14.80;99.90
32446;DHT22;18899;50.748;7.102;2023-05-02T12:29:48;14.90;99.90
32446;DHT22;18899;50.748;7.102;2023-05-02T12:32:14;14.80;99.90
32446;DHT22;18899;50.748;7.102;2023-05-02T12:34:43;14.60;99.90
32446;DHT22;18899;50.748;7.102;2023-05-02T12:37:08;14.80;99.90
32446;DHT22;18899;50.748;7.102;2023-05-02T12:39:38;15.00;99.90
32446;DHT22;18899;50.748;7.102;2023-05-02T12:42:11;15.00;99.90
32446;DHT22;18899;50.748;7.102;2023-05-02T12:44:38;15.30;99.90
32446;DHT22;18899;50.748;7.102;2023-05-02T12:47:05;15.40;99.90
32446;DHT22;18899;50.748;7.102;2023-05-02T12:49:30;15.50;99.90
32446;DHT22;18899;50.748;7.102;2023-05-02T12:51:56;15.40;99.90
32446;DHT22;18899;50.748;7.102;2023-05-02T12:54:22;15.90;99.90
32446;DHT22;18899;50.748;7.102;2023-05-02T12:56:48;15.80;99.90
32446;DHT22;18899;50.748;7.102;2023-05-02T12:59:29;15.70;99.90
32446;DHT22;18899;50.748;7.102;2023-05-02T13:01:55;15.80;99.90
32446;DHT22;18899;50.748;7.102;2023-05-02T13:04:32;15.80;99.90
32446;DHT22;18899;50.748;7.102;2023-05-02T13:06:57;16.00;99.90
32446;DHT22;18899;50.748;7.102;2023-05-02T13:09:23;16.00;99.90
32446;DHT22;18899;50.748;7.102;2023-05-02T13:11:48;16.30;99.90
32446;DHT22;18899;50.748;7.102;2023-05-02T13:14:14;16.20;99.90
32446;DHT22;18899;50.748;7.102;2023-05-02T13:16:40;16.60;99.90
32446;DHT22;18899;50.748;7.102;2023-05-02T13:19:05;16.30;99.90
32446;DHT22;18899;50.748;7.102;2023-05-02T13:21:31;16.20;99.90
32446;DHT22;18899;50.748;7.102;2023-05-02T13:23:56;16.10;99.90
32446;DHT22;18899;50.748;7.102;2023-05-02T13:26:23;16.20;99.90
32446;DHT22;18899;50.748;7.102;2023-05-02T13:28:48;16.10;99.90
32446;DHT22;18899;50.748;7.102;2023-05-02T13:31:14;15.90;99.90
32446;DHT22;18899;50.748;7.102;2023-05-02T13:33:40;16.30;99.90
32446;DHT22;18899;50.748;7.102;2023-05-02T13:36:05;16.10;99.90
32446;DHT22;18899;50.748;7.102;2023-05-02T13:38:31;15.90;99.10
32446;DHT22;18899;50.748;7.102;2023-05-02T13:40:56;15.70;99.90
32446;DHT22;18899;50.748;7.102;2023-05-02T13:43:22;15.30;99.90
32446;DHT22;18899;50.748;7.102;2023-05-02T13:45:48;15.10;99.90
32446;DHT22;18899;50.748;7.102;2023-05-02T13:48:14;15.20;99.90
32446;DHT22;18899;50.748;7.102;2023-05-02T13:50:42;15.10;99.90
32446;DHT22;18899;50.748;7.102;2023-05-02T13:53:07;14.90;99.90
32446;DHT22;18899;50.748;7.102;2023-05-02T13:55:33;14.90;99.90
32446;DHT22;18899;50.748;7.102;2023-05-02T13:57:59;14.70;99.90
32446;DHT22;18899;50.748;7.102;2023-05-02T14:00:24;14.90;99.90
32446;DHT22;18899;50.748;7.102;2023-05-02T14:02:52;15.10;99.90
32446;DHT22;18899;50.748;7.102;2023-05-02T14:05:17;15.20;99.90
32446;DHT22;18899;50.748;7.102;2023-05-02T14:07:43;15.00;99.90
32446;DHT22;18899;50.748;7.102;2023-05-02T14:10:09;14.90;99.90
32446;DHT22;18899;50.748;7.102;2023-05-02T14:12:34;14.90;99.90
32446;DHT22;18899;50.748;7.102;2023-05-02T14:15:00;14.90;99.90
32446;DHT22;18899;50.748;7.102;2023-05-02T14:17:26;14.90;99.90
32446;DHT22;18899;50.748;7.102;2023-05-02T14:19:51;14.70;99.90
32446;DHT22;18899;50.748;7.102;2023-05-02T14:22:17;14.40;99.90
32446;DHT22;18899;50.748;7.102;2023-05-02T14:24:42;14.60;99.90
32446;DHT22;18899;50.748;7.102;2023-05-02T14:27:08;14.70;99.90
32446;DHT22;18899;50.748;7.102;2023-05-02T14:29:43;14.80;99.70
32446;DHT22;18899;50.748;7.102;2023-05-02T14:32:08;14.80;99.90
32446;DHT22;18899;50.748;7.102;2023-05-02T14:34:34;14.90;99.90
32446;DHT22;18899;50.748;7.102;2023-05-02T14:37:00;14.90;99.90
32446;DHT22;18899;50.748;7.102;2023-05-02T14:39:26;15.00;96.90
32446;DHT22;18899;50.748;7.102;2023-05-02T14:41:52;15.30;99.60
32446;DHT22;18899;50.748;7.102;2023-05-02T14:44:17;15.20;95.10
32446;DHT22;18899;50.748;7.102;2023-05-02T14:46:43;15.10;99.10
32446;DHT22;18899;50.748;7.102;2023-05-02T14:49:08;15.30;92.90
32446;DHT22;18899;50.748;7.102;2023-05-02T14:51:37;15.50;91.60
32446;DHT22;18899;50.748;7.102;2023-05-02T14:54:03;15.20;90.90
32446;DHT22;18899;50.748;7.102;2023-05-02T14:56:29;15.10;93.00
32446;DHT22;18899;50.748;7.102;2023-05-02T14:58:54;15.00;92.20
32446;DHT22;18899;50.748;7.102;2023-05-02T15:01:21;14.90;90.70
32446;DHT22;18899;50.748;7.102;2023-05-02T15:03:47;14.90;90.10
32446;DHT22;18899;50.748;7.102;2023-05-02T15:06:14;15.00;91.00
32446;DHT22;18899;50.748;7.102;2023-05-02T15:08:40;14.90;94.10
32446;DHT22;18899;50.748;7.102;2023-05-02T15:11:08;14.60;93.20
32446;DHT22;18899;50.748;7.102;2023-05-02T15:13:34;14.70;94.40
32446;DHT22;18899;50.748;7.102;2023-05-02T15:16:01;14.60;91.50
32446;DHT22;18899;50.748;7.102;2023-05-02T15:18:26;14.70;91.80
32446;DHT22;18899;50.748;7.102;2023-05-02T15:20:52;14.60;92.40
32446;DHT22;18899;50.748;7.102;2023-05-02T15:23:17;14.50;92.60
32446;DHT22;18899;50.748;7.102;2023-05-02T15:25:43;14.60;92.50
32446;DHT22;18899;50.748;7.102;2023-05-02T15:28:09;14.50;91.90
32446;DHT22;18899;50.748;7.102;2023-05-02T15:30:34;14.20;92.90
32446;DHT22;18899;50.748;7.102;2023-05-02T15:33:00;14.10;93.10
32446;DHT22;18899;50.748;7.102;2023-05-02T15:35:26;14.10;93.80
32446;DHT22;18899;50.748;7.102;2023-05-02T15:37:52;14.00;95.20
32446;DHT22;18899;50.748;7.102;2023-05-02T15:40:18;13.80;94.30
32446;DHT22;18899;50.748;7.102;2023-05-02T15:42:43;13.50;92.50
32446;DHT22;18899;50.748;7.102;2023-05-02T15:45:11;13.40;94.60
32446;DHT22;18899;50.748;7.102;2023-05-02T15:47:40;13.40;92.50
32446;DHT22;18899;50.748;7.102;2023-05-02T15:50:06;13.50;93.10
32446;DHT22;18899;50.748;7.102;2023-05-02T15:52:32;13.40;92.90
32446;DHT22;18899;50.748;7.102;2023-05-02T15:54:58;13.50;93.10
32446;DHT22;18899;50.748;7.102;2023-05-02T15:57:26;13.60;92.80
32446;DHT22;18899;50.748;7.102;2023-05-02T15:59:51;13.80;91.40
32446;DHT22;18899;50.748;7.102;2023-05-02T16:02:17;13.80;94.20
32446;DHT22;18899;50.748;7.102;2023-05-02T16:04:43;13.60;91.20
32446;DHT22;18899;50.748;7.102;2023-05-02T16:07:09;13.50;91.60